Time;durP1;ratioP1;P1;durP2;ratioP2;P2;SDS_P1;SDS_P2;PMS_P1;PMS_P2;Temp;Humidity;BMP_temperature;BMP_pressure;BME280_temperature;BME280_humidity;BME280_pressure;Samples;Min_cycle;Max_cycle;Signal;HPM_P1;HPM_P2
2022/08/02 00:01:43;;;;;;;3.42;1.45;;;12.80;99.90;;;;;;5000143;28;20041;-81
2022/08/02 00:04:09;;;;;;;2.78;1.48;;;12.70;99.90;;;;;;5036412;28;20172;-81
2022/08/02 00:06:35;;;;;;;4.40;1.65;;;12.80;99.90;;;;;;5017592;28;20060;-81
2022/08/02 00:09:01;;;;;;;2.67;1.40;;;12.70;99.90;;;;;;5004164;28;20033;-81
2022/08/02 00:11:27;;;;;;;6.05;1.75;;;12.60;99.90;;;;;;5017226;28;20037;-81
2022/08/02 00:13:52;;;;;;;5.00;2.00;;;12.60;99.90;;;;;;5020538;28;20442;-86
2022/08/02 00:16:18;;;;;;;3.60;1.55;;;12.60;99.90;;;;;;5055728;28;20056;-87
2022/08/02 00:18:44;;;;;;;4.15;1.50;;;12.60;99.90;;;;;;5040404;28;20109;-87
2022/08/02 00:21:10;;;;;;;2.97;1.80;;;12.60;99.90;;;;;;5039891;28;20421;-87
2022/08/02 00:23:35;;;;;;;4.35;2.10;;;12.60;99.90;;;;;;5039898;28;20127;-86
2022/08/02 00:26:01;;;;;;;4.75;2.05;;;12.60;99.90;;;;;;5023565;28;20041;-86
2022/08/02 00:28:27;;;;;;;4.70;2.13;;;12.60;99.90;;;;;;5023568;28;20095;-86
2022/08/02 00:30:52;;;;;;;2.85;1.60;;;12.60;99.90;;;;;;5056898;28;20521;-81
2022/08/02 00:33:18;;;;;;;5.32;1.90;;;12.40;99.90;;;;;;5037547;28;20037;-81
2022/08/02 00:35:47;;;;;;;6.93;2.08;;;12.40;99.90;;;;;;5023435;28;20051;-81
2022/08/02 00:38:13;;;;;;;6.65;1.77;;;12.30;99.90;;;;;;5039726;28;20127;-81
2022/08/02 00:40:39;;;;;;;2.90;1.77;;;12.30;99.90;;;;;;5039901;28;20127;-81
2022/08/02 00:43:08;;;;;;;2.97;1.50;;;12.20;99.90;;;;;;5055052;28;20043;-81
2022/08/02 00:45:35;;;;;;;4.65;2.13;;;12.20;99.90;;;;;;5055580;28;20479;-81
2022/08/02 00:48:01;;;;;;;4.03;2.17;;;12.30;99.90;;;;;;5039679;28;20036;-86
2022/08/02 00:50:27;;;;;;;5.65;2.75;;;12.20;99.90;;;;;;5040026;28;20127;-86
2022/08/02 00:52:53;;;;;;;5.90;2.00;;;12.30;99.90;;;;;;5055920;28;20059;-87
2022/08/02 00:55:19;;;;;;;6.38;2.10;;;12.30;99.90;;;;;;5039461;28;20041;-86
2022/08/02 00:57:45;;;;;;;4.43;2.17;;;12.20;99.90;;;;;;5039420;28;20040;-86
2022/08/02 01:00:12;;;;;;;5.88;2.20;;;12.20;99.90;;;;;;5060197;28;20050;-86
2022/08/02 01:02:37;;;;;;;4.82;2.45;;;12.30;99.90;;;;;;5042971;28;20044;-87
2022/08/02 01:05:04;;;;;;;4.05;1.90;;;12.30;99.90;;;;;;5058624;28;20402;-85
2022/08/02 01:07:30;;;;;;;6.68;2.25;;;12.20;99.90;;;;;;5039554;28;20036;-84
2022/08/02 01:09:55;;;;;;;5.78;1.98;;;12.30;99.90;;;;;;5055880;28;20570;-85
2022/08/02 01:12:21;;;;;;;3.50;1.80;;;12.30;99.90;;;;;;5039139;28;20035;-84
2022/08/02 01:14:49;;;;;;;6.80;2.30;;;12.20;99.90;;;;;;5055170;28;20135;-84
2022/08/02 01:17:33;;;;;;;5.25;2.60;;;12.30;99.90;;;;;;5055624;28;20119;-84
2022/08/02 01:20:35;;;;;;;7.70;1.92;;;12.30;99.90;;;;;;5055788;28;20127;-86
2022/08/02 01:23:19;;;;;;;5.65;2.17;;;12.30;99.90;;;;;;5039267;28;20052;-86
2022/08/02 01:26:00;;;;;;;7.93;2.03;;;12.30;99.90;;;;;;5038781;28;20036;-86
2022/08/02 01:28:34;;;;;;;4.47;2.30;;;12.30;99.90;;;;;;5055557;28;20047;-86
2022/08/02 01:31:29;;;;;;;4.30;2.58;;;12.30;99.90;;;;;;5055469;28;20043;-86
2022/08/02 01:34:17;;;;;;;4.43;2.55;;;12.40;99.90;;;;;;5038765;28;20044;-86
2022/08/02 01:36:48;;;;;;;5.05;1.90;;;12.30;99.90;;;;;;5051219;28;20461;-81
2022/08/02 01:39:18;;;;;;;6.72;2.60;;;12.30;99.90;;;;;;5039161;28;20051;-81
2022/08/02 01:41:45;;;;;;;8.10;2.30;;;12.70;99.90;;;;;;5055741;28;20131;-81
2022/08/02 01:44:14;;;;;;;4.90;2.42;;;12.30;99.90;;;;;;5038726;28;20045;-81
2022/08/02 01:46:41;;;;;;;6.13;3.28;;;12.20;99.90;;;;;;5058560;28;20127;-81
2022/08/02 01:49:14;;;;;;;7.53;2.42;;;12.20;99.90;;;;;;5058039;28;20032;-81
2022/08/02 01:54:29;;;;;;;4.53;1.95;;;12.20;99.90;;;;;;5072939;28;20040;-84
2022/08/02 01:56:56;;;;;;;3.60;2.28;;;12.20;99.90;;;;;;5069235;28;20098;-84
2022/08/02 01:59:24;;;;;;;5.93;2.00;;;12.20;99.90;;;;;;5042721;28;20051;-84
2022/08/02 02:01:52;;;;;;;5.78;2.45;;;12.10;99.90;;;;;;5077605;28;20117;-84
2022/08/02 02:04:19;;;;;;;4.88;2.08;;;12.10;99.90;;;;;;5079325;28;20051;-84
2022/08/02 02:06:46;;;;;;;5.43;2.50;;;12.10;99.90;;;;;;5046701;28;20120;-84
2022/08/02 02:09:13;;;;;;;6.72;2.17;;;12.10;99.90;;;;;;5059786;28;20055;-84
2022/08/02 02:11:42;;;;;;;8.02;2.70;;;12.10;99.90;;;;;;5042501;28;20052;-81
2022/08/02 02:14:11;;;;;;;7.20;2.67;;;12.10;99.90;;;;;;5082999;22;20119;-83
2022/08/02 02:16:41;;;;;;;4.72;1.92;;;12.10;99.90;;;;;;5036750;28;20132;-83
2022/08/02 02:19:08;;;;;;;6.43;2.17;;;12.10;99.90;;;;;;5032958;28;20037;-86
2022/08/02 02:21:35;;;;;;;6.07;2.20;;;12.00;99.90;;;;;;5026266;28;20102;-86
2022/08/02 02:24:02;;;;;;;8.32;2.33;;;12.10;99.90;;;;;;5019154;28;20048;-86
2022/08/02 02:26:30;;;;;;;9.25;2.53;;;12.00;99.90;;;;;;5044479;28;20568;-81
2022/08/02 02:29:00;;;;;;;3.67;2.10;;;12.10;99.90;;;;;;5041819;28;20185;-81
2022/08/02 02:31:31;;;;;;;5.93;2.30;;;12.10;99.90;;;;;;5042053;28;20506;-81
2022/08/02 02:34:09;;;;;;;5.38;2.33;;;12.10;99.90;;;;;;5059275;28;20136;-81
2022/08/02 02:36:38;;;;;;;5.50;1.88;;;12.20;99.90;;;;;;5057857;28;20547;-80
2022/08/02 02:39:06;;;;;;;3.65;2.13;;;12.10;99.90;;;;;;5056159;28;20040;-81
2022/08/02 02:41:32;;;;;;;5.03;1.92;;;12.10;99.90;;;;;;5058053;28;20048;-81
2022/08/02 02:44:02;;;;;;;5.47;2.30;;;12.10;99.90;;;;;;5058722;28;20178;-81
2022/08/02 02:46:31;;;;;;;6.00;1.90;;;12.10;99.90;;;;;;5058267;28;20083;-81
2022/08/02 02:48:59;;;;;;;4.38;1.63;;;12.10;99.90;;;;;;5041006;28;20076;-81
2022/08/02 02:51:25;;;;;;;3.72;2.00;;;12.10;99.90;;;;;;5058452;28;20042;-81
2022/08/02 02:53:52;;;;;;;4.53;2.00;;;12.10;99.90;;;;;;5041684;28;20040;-81
2022/08/02 02:56:19;;;;;;;6.22;2.10;;;12.10;99.90;;;;;;5043591;28;20045;-81
2022/08/02 02:58:46;;;;;;;6.15;2.40;;;12.10;99.90;;;;;;5060803;28;20040;-81
2022/08/02 03:01:31;;;;;;;3.95;1.92;;;12.10;99.90;;;;;;5067719;28;20047;-81
2022/08/02 03:04:02;;;;;;;4.25;2.17;;;12.10;99.90;;;;;;5027600;28;20051;-80
2022/08/02 03:06:28;;;;;;;7.65;2.28;;;12.10;99.90;;;;;;5058317;28;20047;-81
2022/08/02 03:08:54;;;;;;;4.22;1.95;;;12.20;99.90;;;;;;5021996;28;20120;-81
2022/08/02 03:11:21;;;;;;;8.88;3.05;;;12.20;99.90;;;;;;5046833;28;20043;-81
2022/08/02 03:13:47;;;;;;;6.78;2.50;;;12.20;99.90;;;;;;5041702;28;20131;-81
2022/08/02 03:16:13;;;;;;;6.93;2.33;;;12.20;99.90;;;;;;5057441;28;20129;-81
2022/08/02 03:18:41;;;;;;;8.40;2.50;;;12.20;99.90;;;;;;5041576;28;20044;-81
2022/08/02 03:21:12;;;;;;;6.55;2.50;;;12.20;99.90;;;;;;5055801;28;20111;-81
2022/08/02 03:23:39;;;;;;;5.60;2.38;;;12.30;99.90;;;;;;5058361;28;20417;-81
2022/08/02 03:26:05;;;;;;;5.32;2.10;;;12.40;99.90;;;;;;5055015;28;20068;-81
2022/08/02 03:28:31;;;;;;;5.43;2.30;;;12.30;99.90;;;;;;5042056;28;20131;-81
2022/08/02 03:30:57;;;;;;;5.60;2.20;;;12.30;99.90;;;;;;5055203;28;20151;-81
2022/08/02 03:33:24;;;;;;;5.10;2.03;;;12.40;99.90;;;;;;5041257;28;20433;-85
2022/08/02 03:35:53;;;;;;;3.55;2.05;;;12.40;99.90;;;;;;5057392;28;20036;-85
2022/08/02 03:38:21;;;;;;;3.92;1.85;;;12.40;99.90;;;;;;5057537;28;20502;-85
2022/08/02 03:40:48;;;;;;;5.13;2.20;;;12.40;99.90;;;;;;5021127;28;20051;-86
2022/08/02 03:43:15;;;;;;;4.22;2.30;;;12.40;99.90;;;;;;5038070;28;20037;-86
2022/08/02 03:45:46;;;;;;;7.80;2.50;;;12.40;99.90;;;;;;5041109;28;20433;-86
2022/08/02 03:48:13;;;;;;;3.45;1.92;;;12.40;99.90;;;;;;5057547;28;20041;-86
2022/08/02 03:50:41;;;;;;;5.72;2.10;;;12.40;99.90;;;;;;5040670;28;20072;-85
2022/08/02 03:53:07;;;;;;;4.57;2.15;;;12.30;99.90;;;;;;5020134;28;20045;-86
2022/08/02 03:55:34;;;;;;;3.42;2.00;;;12.30;99.90;;;;;;5037534;28;20155;-86
2022/08/02 03:58:00;;;;;;;7.22;2.50;;;12.40;99.90;;;;;;5004662;28;20111;-86
2022/08/02 04:00:26;;;;;;;7.88;3.17;;;12.40;99.90;;;;;;5026892;28;20049;-85
2022/08/02 04:02:52;;;;;;;4.78;2.20;;;12.40;99.90;;;;;;5057101;28;20359;-86
2022/08/02 04:05:18;;;;;;;6.60;2.40;;;12.40;99.90;;;;;;5057155;28;20063;-86
2022/08/02 04:07:45;;;;;;;5.20;2.35;;;12.40;99.90;;;;;;5056497;28;20037;-85
2022/08/02 04:10:11;;;;;;;4.07;2.25;;;12.40;99.90;;;;;;5056703;28;20036;-85
2022/08/02 04:12:37;;;;;;;4.35;2.42;;;12.40;99.90;;;;;;5056839;28;20044;-84
2022/08/02 04:15:05;;;;;;;3.55;1.95;;;12.50;99.90;;;;;;5005422;28;20048;-84
2022/08/02 04:17:33;;;;;;;6.95;2.30;;;12.50;99.90;;;;;;5037079;28;20041;-85
2022/08/02 04:20:07;;;;;;;4.45;2.22;;;12.50;99.90;;;;;;5036827;28;20045;-84
2022/08/02 04:22:55;;;;;;;6.82;2.38;;;12.40;99.90;;;;;;5036842;28;20124;-84
2022/08/02 04:25:23;;;;;;;5.10;2.35;;;12.50;99.90;;;;;;5053235;28;20033;-81
2022/08/02 04:27:50;;;;;;;7.38;2.15;;;12.50;99.90;;;;;;5039691;28;20382;-81
2022/08/02 04:30:17;;;;;;;4.65;2.35;;;12.50;99.90;;;;;;5025202;28;20028;-81
2022/08/02 04:32:44;;;;;;;3.25;2.00;;;12.60;99.90;;;;;;5056489;28;20546;-81
2022/08/02 04:35:11;;;;;;;3.70;2.17;;;12.50;99.90;;;;;;5029623;28;20044;-81
2022/08/02 04:37:37;;;;;;;8.35;2.30;;;12.70;99.90;;;;;;5036383;28;20132;-81
2022/08/02 04:40:08;;;;;;;5.72;2.00;;;12.70;99.90;;;;;;5036601;28;20405;-84
2022/08/02 04:42:34;;;;;;;7.63;1.95;;;12.70;99.90;;;;;;5019884;28;20041;-84
2022/08/02 04:45:01;;;;;;;5.57;2.85;;;12.70;99.90;;;;;;5044544;28;20040;-85
2022/08/02 04:47:27;;;;;;;7.25;2.58;;;12.80;99.90;;;;;;5056230;28;20119;-85
2022/08/02 04:49:53;;;;;;;5.40;2.30;;;12.90;99.90;;;;;;5039456;28;20116;-85
2022/08/02 04:52:19;;;;;;;4.10;2.30;;;12.90;99.90;;;;;;5056227;28;20025;-84
2022/08/02 04:54:45;;;;;;;7.57;2.70;;;13.00;99.90;;;;;;5056092;28;20072;-85
2022/08/02 04:59:55;;;;;;;4.72;2.17;;;13.30;99.90;;;;;;5057141;28;20489;-81
2022/08/02 05:02:23;;;;;;;4.25;2.13;;;13.60;99.90;;;;;;5035784;28;20122;-81
2022/08/02 05:04:50;;;;;;;7.43;2.30;;;13.70;99.90;;;;;;5038873;28;20072;-81
2022/08/02 05:07:16;;;;;;;4.68;2.40;;;14.00;99.90;;;;;;5038975;28;20045;-81
2022/08/02 05:09:41;;;;;;;4.13;1.90;;;14.20;99.90;;;;;;5039880;28;20062;-81
2022/08/02 05:12:08;;;;;;;6.80;2.20;;;14.40;99.90;;;;;;5039455;28;20040;-81
2022/08/02 05:14:34;;;;;;;4.57;1.52;;;15.30;99.90;;;;;;5035509;28;20057;-86
2022/08/02 05:17:00;;;;;;;5.85;2.33;;;15.70;99.90;;;;;;5044557;28;20067;-86
2022/08/02 05:19:25;;;;;;;5.15;2.22;;;15.80;99.90;;;;;;5021892;28;20052;-86
2022/08/02 05:21:51;;;;;;;6.72;1.92;;;15.70;99.90;;;;;;5055457;28;20083;-86
2022/08/02 05:24:17;;;;;;;3.75;1.80;;;15.60;99.90;;;;;;5022397;28;20052;-86
2022/08/02 05:26:43;;;;;;;3.05;1.80;;;15.60;99.90;;;;;;5055097;28;20063;-86
2022/08/02 05:29:08;;;;;;;4.10;1.85;;;16.60;99.90;;;;;;5055583;28;20541;-86
2022/08/02 05:31:34;;;;;;;3.22;1.63;;;16.50;99.90;;;;;;5055655;28;20040;-86
2022/08/02 05:34:00;;;;;;;4.68;1.98;;;18.00;99.90;;;;;;5038918;28;20124;-86
2022/08/02 05:36:25;;;;;;;3.42;1.98;;;19.10;99.90;;;;;;5039626;28;20044;-86
2022/08/02 05:38:51;;;;;;;2.72;1.40;;;19.40;99.90;;;;;;5055240;28;20040;-86
2022/08/02 05:41:18;;;;;;;7.25;1.63;;;20.30;99.90;;;;;;5038890;28;20514;-87
2022/08/02 05:43:44;;;;;;;3.92;1.80;;;20.80;99.90;;;;;;5039059;28;20064;-86
2022/08/02 05:46:10;;;;;;;6.80;1.75;;;21.50;99.90;;;;;;5055327;28;20047;-87
2022/08/02 05:48:39;;;;;;;4.00;1.80;;;22.10;99.90;;;;;;5055413;28;20041;-86
2022/08/02 05:51:10;;;;;;;4.40;1.70;;;22.60;99.90;;;;;;5039152;28;20068;-86
2022/08/02 05:54:04;;;;;;;8.52;1.80;;;23.00;99.90;;;;;;5055379;28;20044;-86
2022/08/02 05:56:49;;;;;;;3.70;1.30;;;23.50;98.10;;;;;;5055392;28;20043;-84
2022/08/02 05:59:46;;;;;;;5.55;1.70;;;23.70;97.60;;;;;;5055231;28;20041;-84
2022/08/02 06:02:19;;;;;;;5.68;1.77;;;23.70;97.00;;;;;;5038749;28;20044;-84
2022/08/02 06:05:01;;;;;;;3.72;1.30;;;23.80;97.20;;;;;;5039216;28;20070;-83
2022/08/02 06:07:29;;;;;;;2.38;1.25;;;24.00;96.30;;;;;;5038697;28;20123;-83
2022/08/02 06:09:56;;;;;;;3.42;1.35;;;24.80;96.70;;;;;;5038399;28;20041;-82
2022/08/02 06:12:28;;;;;;;2.72;1.40;;;25.40;95.00;;;;;;5038775;28;20048;-82
2022/08/02 06:14:55;;;;;;;5.72;1.58;;;25.00;94.10;;;;;;5051853;28;20056;-83
2022/08/02 06:17:21;;;;;;;4.40;1.38;;;24.80;94.00;;;;;;5051775;28;20061;-82
2022/08/02 06:19:47;;;;;;;2.40;1.30;;;24.50;94.30;;;;;;5032552;28;20030;-82
2022/08/02 06:22:15;;;;;;;3.13;1.42;;;24.00;95.70;;;;;;5035130;28;20037;-83
2022/08/02 06:24:48;;;;;;;2.03;1.27;;;24.50;94.60;;;;;;5051620;28;20079;-83
2022/08/02 06:27:14;;;;;;;2.40;1.35;;;24.60;95.10;;;;;;5036005;28;20045;-83
2022/08/02 06:29:42;;;;;;;5.40;1.40;;;24.80;95.20;;;;;;5051800;28;20048;-82
2022/08/02 06:32:08;;;;;;;1.25;0.90;;;25.20;94.00;;;;;;5050361;28;20035;-83
2022/08/02 06:34:40;;;;;;;2.05;1.25;;;24.80;94.00;;;;;;5038905;28;20398;-83
2022/08/02 06:37:23;;;;;;;4.30;1.17;;;24.20;94.90;;;;;;5038761;28;20534;-80
2022/08/02 06:40:02;;;;;;;10.80;1.92;;;24.30;95.00;;;;;;5038897;28;20036;-80
2022/08/02 06:42:57;;;;;;;2.83;1.10;;;24.30;94.50;;;;;;5053538;28;20041;-79
2022/08/02 06:45:22;;;;;;;2.78;1.50;;;24.80;94.90;;;;;;5043684;28;20052;-79
2022/08/02 06:47:48;;;;;;;4.35;1.70;;;25.20;93.60;;;;;;5022237;28;20127;-79
2022/08/02 06:50:14;;;;;;;5.22;1.27;;;25.90;93.60;;;;;;5022170;28;20048;-80
2022/08/02 06:52:40;;;;;;;4.60;1.25;;;26.20;93.00;;;;;;5036510;28;20037;-80
2022/08/02 06:55:09;;;;;;;2.55;1.17;;;26.40;91.50;;;;;;5054988;28;20052;-85
2022/08/02 06:57:35;;;;;;;3.58;1.05;;;26.70;92.50;;;;;;5054716;28;20124;-85
2022/08/02 07:00:02;;;;;;;1.50;0.80;;;27.70;90.90;;;;;;5041015;28;20124;-86
2022/08/02 07:02:29;;;;;;;5.15;1.75;;;28.10;90.60;;;;;;5048041;28;20045;-85
2022/08/02 07:04:55;;;;;;;1.75;0.93;;;27.80;90.00;;;;;;5038010;28;20052;-86
2022/08/02 07:07:21;;;;;;;3.38;1.33;;;27.80;88.40;;;;;;5054727;28;20041;-86
2022/08/02 07:09:47;;;;;;;3.03;0.90;;;27.40;90.20;;;;;;5021840;28;20123;-85
2022/08/02 07:12:13;;;;;;;2.50;0.80;;;26.70;89.20;;;;;;5038146;28;21916;-85
2022/08/02 07:14:39;;;;;;;5.25;1.30;;;26.60;88.90;;;;;;5055896;28;20542;-85
2022/08/02 07:17:05;;;;;;;2.10;0.88;;;26.70;90.60;;;;;;5025037;28;20127;-86
2022/08/02 07:19:30;;;;;;;0.90;0.70;;;27.70;89.70;;;;;;5024845;28;20045;-85
2022/08/02 07:21:56;;;;;;;2.80;1.08;;;28.40;87.40;;;;;;5024735;28;20127;-86
2022/08/02 07:24:22;;;;;;;3.05;1.08;;;29.10;84.70;;;;;;5057904;28;20045;-86
2022/08/02 07:26:47;;;;;;;1.95;0.73;;;29.10;83.40;;;;;;5037413;28;20446;-84
2022/08/02 07:29:16;;;;;;;1.52;0.60;;;29.40;83.10;;;;;;5006339;28;20505;-83
2022/08/02 07:31:41;;;;;;;2.53;0.90;;;30.20;82.50;;;;;;5021290;28;20120;-84
2022/08/02 07:34:07;;;;;;;1.67;0.80;;;30.10;82.20;;;;;;5024264;28;20089;-84
2022/08/02 07:36:36;;;;;;;1.45;0.80;;;30.20;81.00;;;;;;5057575;28;20339;-84
2022/08/02 07:39:01;;;;;;;1.63;0.95;;;30.00;80.30;;;;;;5024654;28;20048;-84
2022/08/02 07:41:27;;;;;;;2.83;0.80;;;30.10;80.70;;;;;;5024289;28;20426;-84
2022/08/02 07:43:53;;;;;;;1.75;0.80;;;30.10;81.00;;;;;;5054094;28;20037;-80
2022/08/02 07:46:19;;;;;;;2.95;0.98;;;30.30;80.60;;;;;;5036535;28;20128;-80
2022/08/02 07:48:47;;;;;;;1.98;0.93;;;30.60;80.00;;;;;;5021424;28;20103;-80
2022/08/02 07:51:13;;;;;;;3.45;1.15;;;30.30;77.60;;;;;;5021104;28;20041;-80
2022/08/02 07:53:38;;;;;;;3.83;0.95;;;30.50;78.70;;;;;;5038031;28;20082;-80
2022/08/02 07:56:04;;;;;;;1.38;0.85;;;29.80;78.90;;;;;;5024303;28;20126;-80
2022/08/02 07:58:30;;;;;;;2.83;0.82;;;30.20;76.90;;;;;;5065427;28;20402;-80
2022/08/02 08:00:55;;;;;;;1.98;0.95;;;30.50;78.40;;;;;;5040612;28;20379;-80
2022/08/02 08:03:21;;;;;;;2.47;1.15;;;30.60;78.00;;;;;;5057232;28;20047;-80
2022/08/02 08:05:47;;;;;;;1.35;0.77;;;30.30;79.30;;;;;;5039515;28;20040;-80
2022/08/02 08:08:13;;;;;;;1.65;0.90;;;30.20;76.20;;;;;;5056961;28;20036;-80
2022/08/02 08:10:41;;;;;;;0.60;0.60;;;30.30;76.40;;;;;;5056982;28;20040;-80
2022/08/02 08:13:07;;;;;;;2.03;0.77;;;30.40;75.60;;;;;;5056596;28;20036;-80
2022/08/02 08:15:33;;;;;;;2.45;1.08;;;30.10;75.30;;;;;;5056559;28;20057;-80
2022/08/02 08:17:58;;;;;;;0.90;0.65;;;30.50;76.50;;;;;;5036563;28;20124;-86
2022/08/02 08:20:24;;;;;;;1.48;0.70;;;30.60;74.50;;;;;;5036912;28;20044;-86
2022/08/02 08:22:50;;;;;;;5.18;0.98;;;30.50;76.00;;;;;;5020656;28;20040;-86
2022/08/02 08:25:16;;;;;;;2.67;0.70;;;31.30;74.20;;;;;;5036477;28;20395;-86
2022/08/02 08:27:50;;;;;;;1.60;0.75;;;31.50;73.50;;;;;;5056297;28;20044;-87
2022/08/02 08:30:15;;;;;;;3.20;0.98;;;31.60;73.10;;;;;;5056382;28;20120;-86
2022/08/02 08:32:41;;;;;;;1.73;0.95;;;32.20;72.80;;;;;;5056443;28;20119;-86
2022/08/02 08:35:07;;;;;;;1.95;0.88;;;33.10;73.50;;;;;;5054465;28;20232;-86
2022/08/02 08:37:37;;;;;;;2.80;1.00;;;33.30;72.70;;;;;;5040027;28;20140;-86
2022/08/02 08:40:04;;;;;;;1.70;0.80;;;32.60;70.80;;;;;;5036411;28;20040;-86
2022/08/02 08:42:30;;;;;;;0.90;0.90;;;33.10;72.10;;;;;;5036323;28;20072;-86
2022/08/02 08:44:57;;;;;;;1.67;0.82;;;32.80;72.10;;;;;;5077235;23;20059;-91
2022/08/02 08:47:33;;;;;;;1.33;0.88;;;33.40;71.80;;;;;;5035797;28;20041;-91
2022/08/02 08:50:05;;;;;;;2.17;1.08;;;33.40;70.20;;;;;;5053104;28;20124;-84
2022/08/02 08:52:40;;;;;;;2.38;0.63;;;33.80;72.30;;;;;;5039189;28;20051;-83
2022/08/02 08:55:09;;;;;;;2.72;1.08;;;33.40;71.70;;;;;;5033931;28;20033;-84
2022/08/02 08:57:43;;;;;;;2.55;0.90;;;33.30;72.70;;;;;;5033361;28;20037;-83
2022/08/02 09:00:15;;;;;;;2.03;1.10;;;33.20;70.50;;;;;;5041646;28;20039;-84
2022/08/02 09:02:42;;;;;;;1.17;0.85;;;33.40;71.10;;;;;;5043844;28;20288;-83
2022/08/02 09:05:14;;;;;;;1.35;0.80;;;33.60;69.60;;;;;;5053016;28;20502;-84
2022/08/02 09:07:43;;;;;;;2.35;1.27;;;33.20;69.20;;;;;;5026298;28;20045;-92
2022/08/02 09:10:32;;;;;;;2.22;0.93;;;32.50;71.00;;;;;;5016648;28;20041;-92
2022/08/02 09:13:17;;;;;;;2.92;1.15;;;32.40;72.30;;;;;;5063477;28;20399;-92
2022/08/02 09:15:51;;;;;;;2.42;1.02;;;31.80;71.80;;;;;;5036558;28;20048;-91
2022/08/02 09:18:17;;;;;;;3.92;1.30;;;31.70;72.20;;;;;;5036467;28;20391;-91
2022/08/02 09:21:01;;;;;;;1.58;0.88;;;31.30;72.60;;;;;;5020252;28;20044;-91
2022/08/02 09:23:34;;;;;;;2.47;1.52;;;31.10;72.90;;;;;;5052602;28;20037;-84
2022/08/02 09:26:02;;;;;;;3.25;1.25;;;30.40;72.40;;;;;;5036118;28;20251;-84
2022/08/02 09:28:31;;;;;;;2.78;1.58;;;30.50;75.40;;;;;;5055534;28;20388;-84
2022/08/02 09:31:10;;;;;;;1.38;1.10;;;30.80;74.80;;;;;;5049815;28;20060;-84
2022/08/02 09:33:38;;;;;;;2.08;1.17;;;31.60;75.70;;;;;;5016216;28;20120;-84
2022/08/02 09:36:05;;;;;;;1.33;1.00;;;32.70;75.40;;;;;;5041678;28;20045;-83
2022/08/02 09:38:32;;;;;;;1.75;1.08;;;33.30;72.20;;;;;;5063969;28;20041;-84
2022/08/02 09:40:59;;;;;;;3.22;1.20;;;33.80;73.60;;;;;;5036335;28;20036;-84
2022/08/02 09:43:42;;;;;;;2.67;1.33;;;34.10;72.10;;;;;;5031257;28;20069;-83
2022/08/02 09:46:10;;;;;;;3.38;1.35;;;33.80;74.10;;;;;;5044280;28;20060;-84
2022/08/02 09:48:46;;;;;;;4.18;1.20;;;34.00;73.00;;;;;;5024169;28;20557;-84
2022/08/02 09:51:11;;;;;;;;;;;34.20;72.50;;;;;;5053196;28;20356;-84
2022/08/02 09:53:38;;;;;;;1.38;1.23;;;34.40;71.40;;;;;;5035604;28;19923;-84
2022/08/02 09:56:04;;;;;;;2.60;1.60;;;34.60;72.70;;;;;;5002992;28;20041;-84
2022/08/02 09:58:30;;;;;;;3.70;1.40;;;34.70;73.50;;;;;;5020069;28;20072;-92
2022/08/02 10:01:00;;;;;;;2.55;1.35;;;34.60;72.20;;;;;;5043577;28;20083;-93
2022/08/02 10:03:26;;;;;;;1.83;1.30;;;34.10;73.10;;;;;;5075847;28;20123;-92
2022/08/02 10:05:54;;;;;;;2.85;1.50;;;34.10;73.00;;;;;;5093997;28;20050;-92
2022/08/02 10:08:21;;;;;;;2.80;1.60;;;33.80;72.90;;;;;;5072509;28;20484;-92
2022/08/02 10:10:47;;;;;;;2.55;1.55;;;33.50;74.80;;;;;;5022675;28;20024;-91
2022/08/02 10:13:14;;;;;;;3.53;1.70;;;33.20;75.00;;;;;;5057858;28;20049;-85
2022/08/02 10:15:40;;;;;;;3.00;1.45;;;32.50;75.90;;;;;;5039143;28;20049;-84
2022/08/02 10:18:07;;;;;;;3.30;1.60;;;32.10;76.60;;;;;;5026173;28;20044;-84
2022/08/02 10:20:43;;;;;;;3.17;1.67;;;32.00;77.60;;;;;;5037828;28;20128;-84
2022/08/02 10:23:12;;;;;;;2.38;1.45;;;32.00;76.20;;;;;;5039482;28;20045;-84
2022/08/02 10:25:39;;;;;;;2.53;1.50;;;32.20;76.40;;;;;;5022960;28;20119;-84
2022/08/02 10:28:08;;;;;;;5.38;1.85;;;32.40;77.10;;;;;;5023117;28;20044;-84
2022/08/02 10:30:38;;;;;;;3.20;2.00;;;32.20;75.10;;;;;;5052991;28;20094;-84
2022/08/02 10:33:06;;;;;;;1.98;1.30;;;32.00;76.00;;;;;;5053034;28;20124;-84
2022/08/02 10:35:36;;;;;;;4.05;1.35;;;31.70;78.40;;;;;;5058913;28;20033;-84
2022/08/02 10:38:06;;;;;;;2.63;1.38;;;31.80;79.10;;;;;;5047539;28;20045;-83
2022/08/02 10:40:49;;;;;;;3.60;1.88;;;31.40;76.20;;;;;;5039436;28;20045;-84
2022/08/02 10:43:43;;;;;;;2.28;1.50;;;31.10;76.30;;;;;;5027682;28;20479;-84
2022/08/02 10:46:34;;;;;;;4.75;2.22;;;30.70;78.50;;;;;;5015083;28;20120;-84
2022/08/02 10:49:07;;;;;;;2.45;1.67;;;30.50;78.60;;;;;;5059694;28;20036;-92
2022/08/02 10:51:51;;;;;;;3.35;1.95;;;30.30;79.30;;;;;;5051156;28;20037;-92
2022/08/02 10:54:21;;;;;;;3.22;1.80;;;29.90;80.20;;;;;;5058268;28;20099;-92
2022/08/02 10:56:49;;;;;;;2.85;1.80;;;30.00;82.20;;;;;;5039317;28;20041;-92
2022/08/02 10:59:34;;;;;;;3.38;1.67;;;30.50;81.60;;;;;;5039272;28;20045;-92
2022/08/02 11:02:01;;;;;;;4.07;2.30;;;30.80;82.30;;;;;;5061185;28;20037;-92
2022/08/02 11:04:32;;;;;;;3.80;1.98;;;30.70;80.60;;;;;;5023258;28;20044;-91
2022/08/02 11:07:16;;;;;;;4.45;1.95;;;30.80;82.90;;;;;;5027321;28;20037;-92
2022/08/02 11:09:43;;;;;;;3.70;2.08;;;30.80;82.20;;;;;;5058700;28;20047;-92
2022/08/02 11:12:10;;;;;;;4.15;1.60;;;30.70;83.30;;;;;;5040184;28;20033;-92
2022/08/02 11:14:38;;;;;;;3.15;2.00;;;30.50;82.00;;;;;;5073267;28;20094;-92
2022/08/02 11:17:15;;;;;;;1.98;1.42;;;30.10;82.20;;;;;;5040305;28;20055;-92
2022/08/02 11:20:14;;;;;;;3.15;1.90;;;29.60;83.00;;;;;;5038768;28;20056;-85
2022/08/02 11:22:42;;;;;;;4.03;1.67;;;29.10;83.00;;;;;;4979587;28;20064;-83
2022/08/02 11:25:23;;;;;;;3.22;1.98;;;28.50;85.60;;;;;;5057729;28;20084;-84
2022/08/02 11:28:09;;;;;;;5.65;2.50;;;28.30;87.10;;;;;;5073357;28;20040;-84
2022/08/02 11:30:35;;;;;;;6.03;2.53;;;28.20;87.90;;;;;;5063861;28;20101;-84
2022/08/02 11:33:02;;;;;;;7.82;2.25;;;28.40;88.70;;;;;;5074162;28;20029;-84
2022/08/02 11:35:36;;;;;;;5.78;2.70;;;29.20;89.90;;;;;;5063731;28;20111;-84
2022/08/02 11:38:18;;;;;;;5.50;2.58;;;29.80;86.50;;;;;;5038162;28;20076;-84
2022/08/02 11:40:45;;;;;;;3.95;2.22;;;30.30;87.90;;;;;;5054519;28;20067;-84
2022/08/02 11:43:23;;;;;;;5.65;2.60;;;30.80;85.60;;;;;;5021526;28;20403;-84
2022/08/02 11:45:51;;;;;;;3.65;2.10;;;30.80;84.40;;;;;;5032778;28;20059;-84
2022/08/02 11:48:37;;;;;;;4.45;2.10;;;30.80;86.10;;;;;;5019555;28;20037;-84
2022/08/02 11:51:08;;;;;;;3.45;1.77;;;30.40;86.30;;;;;;5026274;28;20453;-84
2022/08/02 11:53:50;;;;;;;4.40;2.72;;;30.40;86.60;;;;;;5021479;28;20041;-84
2022/08/02 11:56:24;;;;;;;4.47;2.53;;;29.90;85.60;;;;;;5024568;28;20045;-84
2022/08/02 11:59:04;;;;;;;3.78;2.03;;;29.80;87.30;;;;;;5021904;28;20102;-84
2022/08/02 12:01:31;;;;;;;4.85;2.70;;;29.80;88.20;;;;;;5054607;28;20040;-84
2022/08/02 12:03:59;;;;;;;6.97;3.38;;;29.50;86.80;;;;;;5073937;28;20044;-84
2022/08/02 12:06:30;;;;;;;4.35;2.45;;;29.00;87.90;;;;;;5034709;28;20045;-84
2022/08/02 12:09:02;;;;;;;4.15;2.20;;;28.90;87.30;;;;;;5037402;28;20044;-84
2022/08/02 12:11:28;;;;;;;5.43;2.30;;;28.80;88.50;;;;;;5020662;28;21966;-92
2022/08/02 12:13:56;;;;;;;6.55;2.83;;;28.90;89.60;;;;;;5021632;28;20025;-92
2022/08/02 12:19:21;;;;;;;4.22;2.72;;;28.60;88.80;;;;;;5038570;28;20044;-92
2022/08/02 12:22:05;;;;;;;5.60;2.60;;;28.60;89.10;;;;;;5059998;28;20048;-92
2022/08/02 12:24:31;;;;;;;3.55;2.38;;;28.50;89.20;;;;;;5060413;28;20102;-93
2022/08/02 12:26:56;;;;;;;4.38;2.33;;;28.40;89.10;;;;;;5021125;28;20040;-92
2022/08/02 12:29:29;;;;;;;7.35;3.47;;;28.10;89.70;;;;;;5004842;28;20089;-91
2022/08/02 12:31:55;;;;;;;4.72;2.40;;;27.80;90.10;;;;;;5021416;28;20045;-92
2022/08/02 12:34:22;;;;;;;5.75;2.58;;;27.40;90.40;;;;;;5021195;28;20037;-92
2022/08/02 12:37:09;;;;;;;6.38;3.47;;;27.00;90.60;;;;;;5023246;28;20513;-91
2022/08/02 12:39:43;;;;;;;7.68;3.83;;;26.70;91.80;;;;;;5053971;28;20090;-91
2022/08/02 12:42:13;;;;;;;8.30;3.63;;;26.60;91.60;;;;;;5054146;28;20518;-91
2022/08/02 12:44:51;;;;;;;6.07;3.15;;;26.60;92.00;;;;;;5040935;28;20059;-92
2022/08/02 12:47:17;;;;;;;7.70;3.22;;;26.60;92.00;;;;;;5037182;28;20040;-91
2022/08/02 12:49:43;;;;;;;8.48;4.63;;;26.90;92.40;;;;;;5021039;28;20475;-90
2022/08/02 12:52:22;;;;;;;7.40;3.78;;;26.80;91.70;;;;;;5037289;28;20045;-92
2022/08/02 12:54:49;;;;;;;7.68;3.80;;;26.70;92.20;;;;;;5037268;28;20128;-92
2022/08/02 12:57:17;;;;;;;9.60;3.90;;;26.60;92.20;;;;;;5029200;28;20109;-92
2022/08/02 12:59:49;;;;;;;6.93;3.60;;;26.70;92.20;;;;;;5029399;28;20044;-84
2022/08/02 13:02:15;;;;;;;6.45;3.25;;;26.70;92.20;;;;;;5058541;28;20055;-83
2022/08/02 13:04:42;;;;;;;5.32;3.13;;;26.90;92.60;;;;;;5079958;28;20044;-83
2022/08/02 13:07:08;;;;;;;7.57;3.28;;;27.00;92.90;;;;;;5039374;28;20044;-83
2022/08/02 13:09:39;;;;;;;7.55;4.00;;;26.90;92.50;;;;;;5055832;28;20037;-83